Time;durP1;ratioP1;P1;durP2;ratioP2;P2;SDS_P1;SDS_P2;PMS_P1;PMS_P2;Temp;Humidity;BMP_temperature;BMP_pressure;BME280_temperature;BME280_humidity;BME280_pressure;Samples;Min_cycle;Max_cycle;Signal;HPM_P1;HPM_P2
2021/03/27 00:02:22;;;;;;;2.28;1.35;;;;;;;-0.16;100.00;99170.69;5019699;28;20081;-81
2021/03/27 00:05:31;;;;;;;1.50;1.50;;;;;;;-0.19;100.00;99168.78;5028985;28;20060;-81
2021/03/27 00:08:34;;;;;;;4.68;1.63;;;;;;;-0.25;100.00;99170.47;5030241;28;20084;-80
2021/03/27 00:11:55;;;;;;;11.52;2.08;;;;;;;-0.17;100.00;99177.34;5030773;28;20513;-81
2021/03/27 00:15:10;;;;;;;1.58;1.58;;;;;;;-0.10;100.00;99179.97;5010370;28;20076;-80
2021/03/27 00:18:27;;;;;;;1.60;1.60;;;;;;;-0.14;100.00;99173.78;5030957;28;20080;-81
2021/03/27 00:21:44;;;;;;;1.50;1.50;;;;;;;-0.14;100.00;99184.72;5029099;28;20527;-80
2021/03/27 00:25:20;;;;;;;1.35;1.35;;;;;;;-0.18;100.00;99189.50;5023698;28;20069;-82
2021/03/27 00:28:31;;;;;;;2.38;2.20;;;;;;;-0.14;100.00;99173.00;5009681;28;20073;-80
2021/03/27 00:31:45;;;;;;;1.73;1.73;;;;;;;-0.12;100.00;99185.09;5011280;28;20414;-80
2021/03/27 00:34:56;;;;;;;2.28;2.08;;;;;;;-0.05;100.00;99186.91;5023711;28;20068;-81
2021/03/27 00:38:03;;;;;;;1.40;1.40;;;;;;;-0.05;100.00;99198.63;5011369;28;20064;-80
2021/03/27 00:41:14;;;;;;;4.35;2.15;;;;;;;0.00;100.00;99205.59;5006342;28;20564;-80
2021/03/27 00:44:19;;;;;;;1.20;1.20;;;;;;;0.19;100.00;99206.78;4998239;28;20061;-79
2021/03/27 00:47:30;;;;;;;1.30;1.30;;;;;;;0.49;100.00;99209.28;5011172;28;20064;-80
2021/03/27 00:50:42;;;;;;;23.92;2.55;;;;;;;0.60;100.00;99215.31;5010889;28;20069;-79
2021/03/27 00:53:58;;;;;;;1.70;1.60;;;;;;;0.67;100.00;99215.16;5003968;28;20069;-79
2021/03/27 00:57:28;;;;;;;1.85;1.75;;;;;;;0.80;100.00;99218.78;5011092;28;20080;-80
2021/03/27 01:00:44;;;;;;;4.28;2.72;;;;;;;1.02;100.00;99225.31;5007230;28;20064;-81
2021/03/27 01:04:02;;;;;;;1.25;1.25;;;;;;;1.16;100.00;99230.50;5003245;28;20520;-79
2021/03/27 01:07:12;;;;;;;3.70;2.03;;;;;;;1.28;100.00;99235.28;5010304;28;20052;-80
2021/03/27 01:10:23;;;;;;;0.95;0.95;;;;;;;1.33;100.00;99237.53;5010057;28;20061;-79
2021/03/27 01:13:36;;;;;;;1.30;1.30;;;;;;;1.28;100.00;99238.03;5009941;28;20064;-80
2021/03/27 01:16:47;;;;;;;2.92;2.45;;;;;;;1.28;100.00;99242.72;5010684;28;20164;-79
2021/03/27 01:20:16;;;;;;;1.88;1.77;;;;;;;1.23;100.00;99249.53;4998278;28;20085;-79
2021/03/27 01:23:20;;;;;;;4.18;1.45;;;;;;;1.19;100.00;99246.06;5006891;28;20069;-79
2021/03/27 01:26:27;;;;;;;1.10;1.10;;;;;;;1.04;100.00;99261.31;5010408;28;20065;-80
2021/03/27 01:29:43;;;;;;;2.75;2.03;;;;;;;0.98;100.00;99263.00;5009996;28;20061;-79
2021/03/27 01:32:51;;;;;;;1.73;1.73;;;;;;;0.98;100.00;99273.19;5002636;28;20529;-79
2021/03/27 01:36:15;;;;;;;1.65;1.55;;;;;;;0.97;100.00;99277.94;5023427;28;20053;-80
2021/03/27 01:39:30;;;;;;;1.30;1.30;;;;;;;1.08;100.00;99278.47;5028419;28;20136;-80
2021/03/27 01:42:45;;;;;;;0.77;0.77;;;;;;;1.03;100.00;99276.22;5030119;28;20048;-80
2021/03/27 01:45:52;;;;;;;2.60;2.03;;;;;;;0.92;100.00;99292.13;5030151;28;20072;-82
2021/03/27 01:49:17;;;;;;;1.08;1.08;;;;;;;0.95;100.00;99283.06;5031459;28;20080;-79
2021/03/27 01:52:44;;;;;;;1.85;1.85;;;;;;;0.99;100.00;99297.47;5031093;28;20421;-80
2021/03/27 01:55:57;;;;;;;1.40;1.40;;;;;;;0.95;100.00;99302.25;5031411;28;20064;-79
2021/03/27 01:59:06;;;;;;;1.60;1.60;;;;;;;0.92;100.00;99308.56;5031059;28;20068;-80
2021/03/27 02:02:22;;;;;;;1.15;1.15;;;;;;;0.88;100.00;99307.09;5031969;28;20060;-79
2021/03/27 02:05:36;;;;;;;1.38;1.38;;;;;;;0.94;100.00;99319.09;5030059;28;20528;-79
2021/03/27 02:08:51;;;;;;;1.38;1.38;;;;;;;0.90;100.00;99324.66;5029934;28;20076;-79
2021/03/27 02:12:10;;;;;;;3.72;1.13;;;;;;;0.93;100.00;99326.56;5029398;28;20068;-78
2021/03/27 02:15:25;;;;;;;2.28;1.80;;;;;;;0.89;100.00;99331.34;5028469;28;20069;-79
2021/03/27 02:18:50;;;;;;;7.72;2.25;;;;;;;0.82;100.00;99334.25;5029742;28;20061;-80
2021/03/27 02:22:15;;;;;;;1.42;1.02;;;;;;;0.73;100.00;99345.00;5031879;28;20117;-79
2021/03/27 02:25:40;;;;;;;1.83;1.65;;;;;;;0.68;100.00;99359.16;5030408;28;20064;-80
2021/03/27 02:29:32;;;;;;;1.67;1.67;;;;;;;0.69;100.00;99361.47;5030770;28;20076;-80
2021/03/27 02:32:53;;;;;;;1.20;1.20;;;;;;;0.75;100.00;99361.78;5031026;28;20068;-80
2021/03/27 02:36:05;;;;;;;7.90;1.90;;;;;;;0.76;100.00;99366.03;5031797;28;20076;-80
2021/03/27 02:39:23;;;;;;;1.13;1.13;;;;;;;0.75;100.00;99364.53;5030196;28;20060;-79
2021/03/27 02:43:05;;;;;;;1.50;1.50;;;;;;;0.62;100.00;99377.28;5028846;28;20057;-79
2021/03/27 02:46:20;;;;;;;10.55;2.05;;;;;;;0.49;100.00;99379.09;5016096;28;20069;-78
2021/03/27 02:49:33;;;;;;;4.38;1.70;;;;;;;0.43;100.00;99386.25;5026124;28;20064;-78
2021/03/27 02:52:58;;;;;;;1.42;1.42;;;;;;;0.33;100.00;99392.69;5030850;28;20068;-78
2021/03/27 02:56:40;;;;;;;10.80;2.10;;;;;;;0.28;100.00;99398.66;5025805;28;20068;-79
2021/03/27 02:59:51;;;;;;;1.02;1.02;;;;;;;0.24;100.00;99400.69;5030239;28;20080;-80
2021/03/27 03:03:04;;;;;;;1.13;1.13;;;;;;;0.30;100.00;99399.00;5024117;28;20060;-79
2021/03/27 03:06:27;;;;;;;1.65;1.65;;;;;;;0.46;100.00;99410.06;5030832;28;20057;-79
2021/03/27 03:09:44;;;;;;;2.03;1.92;;;;;;;0.50;100.00;99408.03;5028482;28;20068;-80
2021/03/27 03:13:19;;;;;;;1.67;1.65;;;;;;;0.57;100.00;99418.88;5023108;28;20127;-80
2021/03/27 03:16:51;;;;;;;8.85;1.77;;;;;;;0.71;100.00;99410.41;5027003;28;20064;-80
2021/03/27 03:20:21;;;;;;;1.58;1.48;;;;;;;0.88;100.00;99425.72;5022070;28;20061;-80
2021/03/27 03:23:40;;;;;;;1.92;1.83;;;;;;;1.10;100.00;99435.09;5029827;28;20060;-79
2021/03/27 03:27:15;;;;;;;1.52;1.52;;;;;;;1.22;100.00;99433.66;5030241;28;20081;-80
2021/03/27 03:30:41;;;;;;;10.90;2.05;;;;;;;1.21;100.00;99427.41;5026388;28;20524;-80
2021/03/27 03:34:07;;;;;;;6.72;1.10;;;;;;;1.15;100.00;99440.06;5022350;28;20060;-80
2021/03/27 03:37:22;;;;;;;1.02;1.02;;;;;;;1.10;100.00;99443.31;5025839;28;20064;-80
2021/03/27 03:40:48;;;;;;;1.50;1.50;;;;;;;1.01;100.00;99448.59;5029781;28;20520;-80
2021/03/27 03:44:20;;;;;;;1.42;1.42;;;;;;;0.90;100.00;99464.47;5023047;28;20060;-80
2021/03/27 03:47:31;;;;;;;0.95;0.95;;;;;;;0.81;100.00;99466.19;5009488;28;20057;-80
2021/03/27 03:51:02;;;;;;;1.48;1.48;;;;;;;0.76;100.00;99464.69;5029840;28;20065;-80
2021/03/27 03:54:27;;;;;;;3.83;2.05;;;;;;;0.73;100.00;99471.03;5024604;28;20064;-80
2021/03/27 03:57:37;;;;;;;1.25;1.25;;;;;;;0.74;100.00;99467.88;5029333;28;20417;-80
2021/03/27 04:00:59;;;;;;;1.73;1.73;;;;;;;0.99;100.00;99475.66;5029993;28;20068;-80
2021/03/27 04:04:13;;;;;;;1.17;1.17;;;;;;;1.16;100.00;99474.53;5024478;28;20068;-80
2021/03/27 04:07:30;;;;;;;1.50;1.50;;;;;;;1.14;100.00;99465.97;5029614;28;20057;-80
2021/03/27 04:10:36;;;;;;;3.80;1.83;;;;;;;1.17;100.00;99478.81;5028768;28;20064;-80
2021/03/27 04:13:45;;;;;;;1.33;1.33;;;;;;;1.15;100.00;99485.94;5030005;28;20067;-79
2021/03/27 04:16:51;;;;;;;1.23;1.23;;;;;;;1.14;100.00;99490.63;5022434;28;20057;-79
2021/03/27 04:20:06;;;;;;;1.35;1.25;;;;;;;1.12;100.00;99487.53;5029498;28;20061;-80
2021/03/27 04:23:24;;;;;;;1.30;1.30;;;;;;;1.11;100.00;99499.69;5024508;28;20061;-79
2021/03/27 04:26:37;;;;;;;1.52;1.52;;;;;;;1.20;100.00;99504.63;5027260;28;20068;-79
2021/03/27 04:29:53;;;;;;;1.63;1.63;;;;;;;1.25;100.00;99504.13;5029855;28;20064;-80
2021/03/27 04:32:57;;;;;;;3.17;2.00;;;;;;;1.31;100.00;99505.97;5029451;28;20080;-80
2021/03/27 04:36:17;;;;;;;2.97;1.35;;;;;;;1.39;100.00;99507.38;5029024;28;20429;-79
2021/03/27 04:39:21;;;;;;;1.30;1.30;;;;;;;1.46;100.00;99518.22;5029099;28;20064;-80
2021/03/27 04:42:50;;;;;;;2.03;1.92;;;;;;;1.50;100.00;99513.44;5032995;28;20053;-81
2021/03/27 04:46:13;;;;;;;18.15;2.58;;;;;;;1.45;100.00;99526.88;5025597;28;20612;-80
2021/03/27 04:49:58;;;;;;;1.33;1.33;;;;;;;1.31;100.00;99533.41;5029029;28;20064;-80
2021/03/27 04:53:15;;;;;;;11.48;1.88;;;;;;;1.26;100.00;99539.38;5031744;28;20065;-79
2021/03/27 04:56:27;;;;;;;1.10;1.10;;;;;;;1.29;100.00;99546.75;5029215;28;20061;-79
2021/03/27 05:00:08;;;;;;;1.58;1.58;;;;;;;1.13;100.00;99543.13;5032671;28;20065;-80
2021/03/27 05:03:39;;;;;;;1.40;1.40;;;;;;;1.00;100.00;99551.19;5032718;28;20056;-80
2021/03/27 05:06:54;;;;;;;1.23;1.23;;;;;;;0.95;100.00;99562.66;5024150;28;20064;-79
2021/03/27 05:10:10;;;;;;;1.13;1.13;;;;;;;0.97;100.00;99565.75;5026520;28;20060;-79
2021/03/27 05:13:34;;;;;;;27.52;3.03;;;;;;;0.96;100.00;99566.94;5032507;28;20064;-79
2021/03/27 05:16:48;;;;;;;4.55;1.52;;;;;;;0.92;100.00;99581.91;5031433;28;20064;-78
2021/03/27 05:20:19;;;;;;;13.00;1.38;;;;;;;0.90;100.00;99596.03;5020732;28;20056;-79
2021/03/27 05:23:31;;;;;;;2.00;1.90;;;;;;;0.92;100.00;99593.63;5031318;28;20537;-79
2021/03/27 05:26:53;;;;;;;1.45;1.45;;;;;;;0.89;100.00;99597.22;5032251;28;20064;-79
2021/03/27 05:30:27;;;;;;;1.60;1.60;;;;;;;0.79;100.00;99614.59;5011593;28;20069;-79
2021/03/27 05:33:46;;;;;;;1.25;1.20;;;;;;;0.70;100.00;99620.63;5030968;28;20072;-79
2021/03/27 05:37:11;;;;;;;2.10;1.73;;;;;;;0.72;100.00;99622.94;5024417;28;20084;-78
2021/03/27 05:41:00;;;;;;;2.00;1.90;;;;;;;0.66;100.00;99625.38;5028305;28;20084;-78
2021/03/27 05:44:13;;;;;;;1.73;1.73;;;;;;;0.67;100.00;99632.38;5031459;28;20064;-78
2021/03/27 05:47:52;;;;;;;1.40;1.40;;;;;;;0.67;100.00;99624.16;5028426;28;20542;-78
2021/03/27 05:51:41;;;;;;;1.45;1.45;;;;;;;0.58;100.00;99625.91;5031346;28;20068;-78
2021/03/27 05:55:04;;;;;;;1.48;1.48;;;;;;;0.55;100.00;99634.94;5022635;28;20425;-78
2021/03/27 05:58:11;;;;;;;2.67;2.58;;;;;;;0.45;100.00;99630.38;5027468;28;20064;-80
2021/03/27 06:01:20;;;;;;;5.95;2.30;;;;;;;0.55;100.00;99643.16;5028312;28;20429;-80
2021/03/27 06:04:49;;;;;;;12.73;3.33;;;;;;;0.56;100.00;99648.22;5027616;28;20053;-80
2021/03/27 06:08:14;;;;;;;3.00;2.00;;;;;;;0.59;100.00;99663.81;5023836;28;20064;-79
2021/03/27 06:11:32;;;;;;;1.25;1.15;;;;;;;0.70;100.00;99664.47;5026879;28;20061;-80
2021/03/27 06:14:42;;;;;;;1.98;1.88;;;;;;;0.71;100.00;99668.72;5021987;28;20065;-80
2021/03/27 06:18:17;;;;;;;1.35;1.35;;;;;;;0.82;100.00;99682.31;5011242;28;20068;-80
2021/03/27 06:22:14;;;;;;;1.55;1.55;;;;;;;0.83;100.00;99686.59;5007549;28;20065;-80
2021/03/27 06:25:30;;;;;;;1.48;1.48;;;;;;;0.74;100.00;99697.28;4949384;28;20057;-80
2021/03/27 06:28:36;;;;;;;1.15;1.15;;;;;;;0.82;100.00;99690.53;5010532;28;20061;-80
2021/03/27 06:32:01;;;;;;;18.65;1.48;;;;;;;0.95;100.00;99705.22;5011462;28;20069;-79
2021/03/27 06:35:36;;;;;;;1.10;1.10;;;;;;;0.92;100.00;99718.97;5005712;28;20421;-79
2021/03/27 06:39:17;;;;;;;10.15;1.90;;;;;;;1.02;100.00;99724.28;5013614;28;20060;-79
2021/03/27 06:42:38;;;;;;;3.00;2.00;;;;;;;1.17;100.00;99731.09;5017917;28;20056;-79
2021/03/27 06:46:13;;;;;;;1.45;1.35;;;;;;;1.25;100.00;99742.75;5020946;28;20065;-79
2021/03/27 06:49:48;;;;;;;1.17;1.17;;;;;;;1.24;100.00;99736.47;5013359;28;20064;-79
2021/03/27 06:53:13;;;;;;;10.73;1.30;;;;;;;1.34;100.00;99745.75;5024892;28;20057;-79
2021/03/27 06:56:44;;;;;;;1.02;1.02;;;;;;;1.45;100.00;99760.84;5029317;28;20088;-79
2021/03/27 07:00:15;;;;;;;5.95;1.80;;;;;;;1.50;100.00;99776.84;5029539;28;20056;-78
2021/03/27 07:03:40;;;;;;;1.58;1.50;;;;;;;1.68;100.00;99784.00;5029727;28;20064;-79
2021/03/27 07:07:11;;;;;;;1.83;1.67;;;;;;;1.73;100.00;99783.53;5022106;28;20068;-79
2021/03/27 07:10:39;;;;;;;3.30;2.20;;;;;;;1.78;100.00;99797.53;5028531;28;20413;-79
2021/03/27 07:14:05;;;;;;;0.90;0.90;;;;;;;1.86;100.00;99795.47;5029178;28;20080;-79
2021/03/27 07:17:21;;;;;;;4.78;1.77;;;;;;;1.89;100.00;99809.13;5029885;28;20414;-78
2021/03/27 07:20:46;;;;;;;5.72;1.50;;;;;;;1.96;100.00;99816.47;5026739;28;20064;-79
2021/03/27 07:23:55;;;;;;;5.03;1.88;;;;;;;2.04;100.00;99817.91;5028751;28;20421;-79
2021/03/27 07:27:14;;;;;;;1.30;1.30;;;;;;;2.17;100.00;99824.34;5030013;28;20076;-78
2021/03/27 07:30:43;;;;;;;1.08;1.08;;;;;;;2.36;100.00;99831.06;5033396;28;20080;-79
2021/03/27 07:33:55;;;;;;;2.25;2.15;;;;;;;2.39;100.00;99831.00;5022638;28;20060;-80
2021/03/27 07:37:35;;;;;;;2.13;1.65;;;;;;;2.40;100.00;99843.56;5023447;28;20056;-79
2021/03/27 07:40:42;;;;;;;2.42;2.08;;;;;;;2.48;100.00;99853.22;5029913;28;20408;-80
2021/03/27 07:44:13;;;;;;;7.75;1.45;;;;;;;2.56;100.00;99853.84;5028662;28;20060;-80
2021/03/27 07:47:17;;;;;;;5.43;1.20;;;;;;;2.54;100.00;99869.97;5030489;28;20414;-80
2021/03/27 07:50:35;;;;;;;9.23;1.63;;;;;;;2.63;100.00;99884.75;5030664;28;20797;-79
2021/03/27 07:53:57;;;;;;;5.65;1.55;;;;;;;2.79;100.00;99893.09;5030518;28;20084;-79
2021/03/27 07:57:16;;;;;;;;;;;;;;;2.98;100.00;99906.06;5025416;28;20064;-78
2021/03/27 08:00:49;;;;;;;16.52;2.45;;;;;;;3.18;100.00;99908.03;5029953;28;20303;-78
2021/03/27 08:04:22;;;;;;;18.90;2.13;;;;;;;3.33;100.00;99906.53;5023206;28;20064;-81
2021/03/27 08:07:51;;;;;;;1.92;1.85;;;;;;;3.44;100.00;99909.84;5012182;28;20513;-79
2021/03/27 08:11:27;;;;;;;1.25;1.25;;;;;;;3.48;100.00;99905.81;5017663;28;20069;-80
2021/03/27 08:15:18;;;;;;;4.97;2.63;;;;;;;3.53;100.00;99910.06;5014314;28;20080;-80
2021/03/27 08:18:46;;;;;;;14.45;2.53;;;;;;;3.62;100.00;99915.72;4991734;28;20073;-81
2021/03/27 08:22:18;;;;;;;1.50;1.40;;;;;;;3.65;100.00;99920.38;4994190;28;20082;-80
2021/03/27 08:25:25;;;;;;;;;;;;;;;3.65;100.00;99926.69;5013506;28;20084;-79
2021/03/27 08:28:55;;;;;;;27.55;2.38;;;;;;;3.74;100.00;99932.38;5013796;28;19926;-80
2021/03/27 08:32:14;;;;;;;1.88;0.80;;;;;;;3.80;100.00;99933.44;5013978;28;20064;-80
2021/03/27 08:35:49;;;;;;;7.55;1.95;;;;;;;3.87;100.00;99938.00;5023591;28;20069;-79
2021/03/27 08:39:23;;;;;;;5.97;1.20;;;;;;;4.04;100.00;99941.53;5005854;28;20064;-79
2021/03/27 08:42:26;;;;;;;7.05;2.15;;;;;;;4.08;100.00;99945.75;5011594;28;20061;-81
2021/03/27 08:46:07;;;;;;;5.85;1.38;;;;;;;4.21;100.00;99954.13;5013382;28;20138;-80
2021/03/27 08:49:29;;;;;;;2.38;2.05;;;;;;;4.37;100.00;99954.91;5013353;28;20069;-81
2021/03/27 08:52:44;;;;;;;7.80;1.23;;;;;;;4.82;100.00;99962.44;5012593;28;20409;-79
2021/03/27 08:56:06;;;;;;;4.22;1.60;;;;;;;4.91;100.00;99973.66;5013128;28;20073;-79
2021/03/27 08:59:15;;;;;;;0.38;0.38;;;;;;;5.02;100.00;99983.22;4993592;28;20061;-79
2021/03/27 09:02:57;;;;;;;2.47;0.90;;;;;;;5.03;100.00;99990.25;4992662;28;20069;-81
2021/03/27 09:06:29;;;;;;;1.60;1.50;;;;;;;5.02;100.00;99999.75;5006605;28;20065;-81
2021/03/27 09:09:41;;;;;;;;;;;;;;;4.95;100.00;100010.19;5013169;28;20410;-79
2021/03/27 09:13:06;;;;;;;3.53;1.02;;;;;;;4.94;100.00;100008.63;4993208;28;19926;-80
2021/03/27 09:16:32;;;;;;;5.32;0.95;;;;;;;5.07;100.00;99995.66;4993082;28;20065;-81
2021/03/27 09:19:52;;;;;;;0.80;0.80;;;;;;;5.23;100.00;100001.16;5011953;28;20533;-80
2021/03/27 09:23:16;;;;;;;2.15;1.00;;;;;;;5.45;100.00;99998.59;5012563;28;20073;-80
2021/03/27 09:26:48;;;;;;;4.22;0.93;;;;;;;5.56;100.00;99999.84;5008766;28;20386;-80
2021/03/27 09:30:10;;;;;;;0.60;0.60;;;;;;;5.84;100.00;99998.28;5012141;28;20544;-79
2021/03/27 09:33:33;;;;;;;1.75;1.00;;;;;;;6.08;100.00;100005.84;5012831;28;20061;-80
2021/03/27 09:36:47;;;;;;;0.55;0.55;;;;;;;6.13;100.00;100032.91;5019817;28;20409;-79
2021/03/27 09:40:08;;;;;;;7.75;0.77;;;;;;;6.07;100.00;100029.16;5020148;28;20105;-79
2021/03/27 09:43:43;;;;;;;1.65;1.38;;;;;;;6.29;100.00;100054.19;5032395;28;20069;-80
2021/03/27 09:46:50;;;;;;;5.30;1.73;;;;;;;6.32;100.00;100061.59;5030072;28;20560;-79
2021/03/27 09:50:16;;;;;;;0.38;0.38;;;;;;;6.32;100.00;100072.66;5025163;28;20076;-79
2021/03/27 09:53:48;;;;;;;9.32;2.22;;;;;;;6.65;100.00;100073.19;5031309;28;20060;-79
2021/03/27 09:56:56;;;;;;;;;;;;;;;6.96;100.00;100076.94;5025115;28;20060;-79
2021/03/27 10:00:20;;;;;;;0.50;0.50;;;;;;;7.36;100.00;100086.25;5017674;28;19921;-78
2021/03/27 10:03:53;;;;;;;0.63;0.47;;;;;;;7.34;100.00;100085.19;5028291;28;20076;-78
2021/03/27 10:07:36;;;;;;;16.30;1.80;;;;;;;7.19;100.00;100090.41;5025219;28;20065;-78
2021/03/27 10:11:16;;;;;;;3.42;1.23;;;;;;;7.42;100.00;100090.03;5030513;28;20061;-78
2021/03/27 10:14:34;;;;;;;3.70;0.70;;;;;;;7.57;100.00;100098.59;5030546;28;20064;-78
2021/03/27 10:17:43;;;;;;;1.45;1.15;;;;;;;7.79;100.00;100098.63;5020534;28;20077;-78
2021/03/27 10:20:56;;;;;;;0.50;0.30;;;;;;;8.04;100.00;100110.38;5019302;28;20056;-78
2021/03/27 10:24:12;;;;;;;2.60;1.30;;;;;;;8.05;100.00;100113.91;5025414;28;20068;-78
2021/03/27 10:27:30;;;;;;;0.63;0.63;;;;;;;8.15;100.00;100127.41;5031245;28;20065;-78
2021/03/27 10:30:57;;;;;;;2.08;0.73;;;;;;;8.21;100.00;100124.81;5029519;28;20064;-79
2021/03/27 10:34:22;;;;;;;3.28;1.08;;;;;;;8.11;100.00;100114.88;5019453;28;20418;-79
2021/03/27 10:37:42;;;;;;;2.00;1.10;;;;;;;8.07;100.00;100134.44;5031251;28;20065;-80
2021/03/27 10:40:57;;;;;;;2.25;0.73;;;;;;;8.41;100.00;100128.03;5024652;28;20080;-79
2021/03/27 10:44:26;;;;;;;1.00;0.40;;;;;;;8.46;100.00;100130.25;5033019;28;20412;-80
2021/03/27 10:47:46;;;;;;;0.88;0.88;;;;;;;8.37;100.00;100132.97;5030431;28;20084;-80
2021/03/27 10:51:19;;;;;;;2.53;0.70;;;;;;;8.46;100.00;100138.56;5024188;28;20072;-80
2021/03/27 10:54:40;;;;;;;2.33;1.00;;;;;;;8.66;100.00;100132.66;5030129;28;20072;-80
2021/03/27 10:58:18;;;;;;;1.30;0.57;;;;;;;8.54;100.00;100142.63;5031858;28;20061;-80
2021/03/27 11:01:47;;;;;;;3.92;1.13;;;;;;;8.27;100.00;100145.25;5031003;28;20068;-80
2021/03/27 11:05:09;;;;;;;0.77;0.60;;;;;;;8.14;100.00;100153.56;5030803;28;20064;-78
2021/03/27 11:08:31;;;;;;;3.40;1.17;;;;;;;8.01;100.00;100160.44;5018479;28;20068;-79
2021/03/27 11:11:53;;;;;;;1.40;0.70;;;;;;;7.81;100.00;100151.63;5028672;28;20060;-80
2021/03/27 11:15:06;;;;;;;2.90;1.05;;;;;;;7.77;100.00;100159.31;5023996;28;20064;-79
2021/03/27 11:18:25;;;;;;;0.55;0.55;;;;;;;7.79;100.00;100154.09;5025262;28;20064;-80
2021/03/27 11:22:02;;;;;;;3.45;0.60;;;;;;;8.04;100.00;100159.50;5027456;28;20525;-78
2021/03/27 11:25:47;;;;;;;1.02;0.45;;;;;;;8.32;100.00;100159.28;5024984;28;20413;-78
2021/03/27 11:29:05;;;;;;;1.13;0.47;;;;;;;8.23;100.00;100166.72;5020030;28;20524;-78
2021/03/27 11:32:53;;;;;;;0.38;0.35;;;;;;;8.06;100.00;100151.50;5030618;28;20064;-79
2021/03/27 11:36:10;;;;;;;0.90;0.65;;;;;;;8.21;100.00;100163.63;4992290;28;20057;-78
2021/03/27 11:39:38;;;;;;;1.00;0.68;;;;;;;8.45;100.00;100156.44;5026025;28;20524;-78
2021/03/27 11:43:00;;;;;;;0.50;0.40;;;;;;;8.58;100.00;100168.22;5017172;28;20065;-79
2021/03/27 11:46:10;;;;;;;0.50;0.50;;;;;;;8.68;100.00;100178.16;5025572;28;20077;-78
2021/03/27 11:49:18;;;;;;;2.20;1.27;;;;;;;8.77;100.00;100183.75;4995253;28;20077;-77
2021/03/27 11:52:35;;;;;;;6.32;0.65;;;;;;;8.81;100.00;100178.06;5006020;28;20069;-78
2021/03/27 11:55:51;;;;;;;1.58;0.30;;;;;;;8.93;100.00;100193.84;4994139;28;20062;-78
2021/03/27 11:59:42;;;;;;;2.70;0.60;;;;;;;8.96;100.00;100196.50;5014458;28;20056;-78
2021/03/27 12:02:53;;;;;;;1.53;0.97;;;;;;;8.71;100.00;100193.91;5033912;28;20056;-79
2021/03/27 12:06:24;;;;;;;0.80;0.45;;;;;;;8.57;100.00;100197.22;5027808;28;20289;-78
2021/03/27 12:09:49;;;;;;;1.90;0.43;;;;;;;8.57;100.00;100196.44;5031121;28;20060;-77
2021/03/27 12:13:08;;;;;;;0.40;0.40;;;;;;;8.70;100.00;100188.81;5026837;28;20056;-77
2021/03/27 12:16:38;;;;;;;3.90;0.50;;;;;;;8.94;100.00;100187.84;5033591;28;20147;-77
2021/03/27 12:19:48;;;;;;;0.73;0.45;;;;;;;9.15;100.00;100181.47;5025013;28;20088;-80
2021/03/27 12:23:02;;;;;;;3.00;0.38;;;;;;;9.03;100.00;100190.66;5026434;28;20405;-77
2021/03/27 12:26:38;;;;;;;0.30;0.30;;;;;;;8.76;100.00;100193.31;5028617;28;20057;-78
2021/03/27 12:29:45;;;;;;;4.00;0.65;;;;;;;8.50;100.00;100202.25;5029529;28;20081;-77
2021/03/27 12:33:14;;;;;;;2.97;1.10;;;;;;;8.34;100.00;100206.78;5014129;28;20061;-78
2021/03/27 12:36:29;;;;;;;3.72;1.40;;;;;;;8.35;100.00;100210.34;5031715;28;20064;-79
2021/03/27 12:39:51;;;;;;;1.17;0.77;;;;;;;8.47;100.00;100217.06;5031713;28;20057;-78
2021/03/27 12:43:12;;;;;;;1.27;0.63;;;;;;;8.65;100.00;100212.38;5032358;28;20061;-77
2021/03/27 12:46:49;;;;;;;2.53;1.27;;;;;;;8.75;100.00;100213.97;5028663;28;20065;-78
2021/03/27 12:50:30;;;;;;;2.70;0.95;;;;;;;8.58;100.00;100223.75;5031681;28;20064;-77
2021/03/27 12:53:39;;;;;;;0.55;0.30;;;;;;;8.50;100.00;100230.78;5030772;28;20432;-78
2021/03/27 12:57:00;;;;;;;3.28;0.52;;;;;;;8.63;100.00;100228.72;5023051;28;20418;-78
2021/03/27 13:00:22;;;;;;;13.33;3.13;;;;;;;8.71;100.00;100230.00;5034355;28;20072;-78
2021/03/27 13:03:34;;;;;;;11.38;3.17;;;;;;;8.71;100.00;100235.56;5028400;28;20297;-78
2021/03/27 13:06:46;;;;;;;0.75;0.70;;;;;;;8.63;100.00;100242.59;5012379;28;20521;-77
2021/03/27 13:10:11;;;;;;;1.17;0.95;;;;;;;8.60;100.00;100232.41;4996871;28;20060;-78
2021/03/27 13:13:34;;;;;;;16.15;1.25;;;;;;;8.52;100.00;100239.44;5000438;28;20528;-78
2021/03/27 13:16:45;;;;;;;0.30;0.30;;;;;;;8.52;100.00;100245.00;5010941;28;20061;-78
2021/03/27 13:19:56;;;;;;;0.25;0.25;;;;;;;8.60;100.00;100239.97;5021857;28;20076;-77
2021/03/27 13:23:13;;;;;;;0.82;0.75;;;;;;;8.69;100.00;100240.78;5033532;28;20461;-77
2021/03/27 13:26:29;;;;;;;0.95;0.43;;;;;;;8.80;100.00;100254.28;5034521;28;20056;-76
2021/03/27 13:29:40;;;;;;;0.88;0.38;;;;;;;8.84;100.00;100241.81;5031215;28;20064;-77
2021/03/27 13:33:01;;;;;;;6.60;1.13;;;;;;;8.79;100.00;100253.50;5031379;28;20061;-76
2021/03/27 13:36:16;;;;;;;0.60;0.50;;;;;;;8.75;100.00;100252.09;5031242;28;20061;-78
2021/03/27 13:39:51;;;;;;;11.48;1.02;;;;;;;8.59;100.00;100255.84;5031040;28;20061;-76
2021/03/27 13:43:20;;;;;;;0.98;0.45;;;;;;;8.36;100.00;100259.81;5021280;28;20057;-76
2021/03/27 13:46:31;;;;;;;8.38;1.33;;;;;;;8.27;100.00;100250.66;5035573;28;20061;-76
2021/03/27 13:49:49;;;;;;;1.75;0.40;;;;;;;8.25;100.00;100248.31;5039302;28;20061;-77
2021/03/27 13:53:02;;;;;;;4.15;0.57;;;;;;;8.29;100.00;100253.75;5032568;28;20065;-76
2021/03/27 13:56:40;;;;;;;0.75;0.75;;;;;;;8.43;100.00;100252.47;5032191;28;20077;-77
2021/03/27 14:00:13;;;;;;;0.73;0.40;;;;;;;8.76;100.00;100248.84;5031898;28;20084;-76
2021/03/27 14:03:20;;;;;;;13.68;1.15;;;;;;;9.08;100.00;100242.06;5033351;28;20064;-76
2021/03/27 14:07:09;;;;;;;3.80;0.30;;;;;;;9.29;100.00;100240.47;5032057;28;20421;-77
2021/03/27 14:10:39;;;;;;;1.50;1.17;;;;;;;9.46;100.00;100230.66;5031874;28;20065;-76
2021/03/27 14:13:53;;;;;;;5.15;0.60;;;;;;;9.54;100.00;100223.56;5030646;28;20068;-77
2021/03/27 14:17:02;;;;;;;3.25;0.65;;;;;;;9.58;100.00;100207.50;5024665;28;20061;-77
2021/03/27 14:20:35;;;;;;;10.05;3.42;;;;;;;9.61;100.00;100212.16;5029152;28;20068;-77
2021/03/27 14:24:16;;;;;;;10.98;1.27;;;;;;;9.60;100.00;100211.38;5030921;28;20056;-78
2021/03/27 14:27:32;;;;;;;1.27;0.50;;;;;;;9.48;100.00;100211.50;5028602;28;20076;-78
2021/03/27 14:30:41;;;;;;;1.23;0.68;;;;;;;9.37;100.00;100216.72;5031589;28;20059;-78
2021/03/27 14:34:17;;;;;;;4.85;0.80;;;;;;;9.34;100.00;100209.28;5026738;28;20056;-77
2021/03/27 14:37:39;;;;;;;1.58;0.45;;;;;;;9.35;100.00;100214.41;5025253;28;20417;-77
2021/03/27 14:41:33;;;;;;;2.40;0.75;;;;;;;9.39;100.00;100205.91;5024712;28;20064;-78
2021/03/27 14:44:39;;;;;;;0.20;0.20;;;;;;;9.28;100.00;100208.34;5005631;28;20505;-77
2021/03/27 14:48:07;;;;;;;2.58;0.95;;;;;;;9.25;100.00;100203.72;5033420;28;20579;-76
2021/03/27 14:51:32;;;;;;;2.13;0.30;;;;;;;9.25;100.00;100195.41;5033971;28;20056;-77
2021/03/27 14:54:42;;;;;;;1.58;0.55;;;;;;;9.36;100.00;100202.06;5029421;28;20084;-77
2021/03/27 14:58:01;;;;;;;12.32;1.38;;;;;;;9.50;100.00;100189.59;5011550;28;20061;-75
2021/03/27 15:01:30;;;;;;;2.67;0.60;;;;;;;9.59;100.00;100179.28;5011731;28;20457;-76
2021/03/27 15:04:51;;;;;;;3.38;0.77;;;;;;;9.50;100.00;100189.59;5009850;28;20109;-77
2021/03/27 15:08:16;;;;;;;2.75;1.73;;;;;;;9.26;100.00;100185.81;5011199;28;20065;-77
2021/03/27 15:11:19;;;;;;;2.95;1.13;;;;;;;9.16;100.00;100187.78;5010271;28;20065;-77
2021/03/27 15:15:08;;;;;;;4.40;1.17;;;;;;;9.01;100.00;100182.00;5010610;28;20065;-78
2021/03/27 15:18:20;;;;;;;8.80;1.48;;;;;;;8.84;100.00;100183.47;5010353;28;20065;-78
2021/03/27 15:21:42;;;;;;;14.85;1.42;;;;;;;8.80;100.00;100193.97;5010207;28;20097;-76
2021/03/27 15:28:42;;;;;;;5.95;1.98;;;;;;;8.94;100.00;100176.72;5010489;28;20057;-77
2021/03/27 15:31:58;;;;;;;1.33;0.85;;;;;;;8.93;100.00;100175.19;5007354;28;20063;-76
2021/03/27 15:35:23;;;;;;;8.18;1.55;;;;;;;8.82;100.00;100176.84;5005564;28;20061;-77
2021/03/27 15:38:57;;;;;;;4.50;1.42;;;;;;;8.77;100.00;100172.63;5010446;28;20068;-76
2021/03/27 15:42:26;;;;;;;3.08;1.20;;;;;;;8.82;100.00;100163.72;5016910;28;20421;-77
2021/03/27 15:45:54;;;;;;;0.55;0.52;;;;;;;8.88;100.00;100161.91;5015301;28;20069;-76
2021/03/27 15:49:22;;;;;;;1.42;1.27;;;;;;;9.04;100.00;100158.88;5023688;28;20056;-81